Aspen-Pitkin Co/Sardy Field
KASE : rendu visible

Aérodrome :











RETROUVEZ-NOUS SUR...

 
LOGIN :

S'inscrire | Disclaimer

   EN    FR    IT 

 









Légende :    VFR   VFR Marginal   IFR   IFR Intensif   IFR Très Intensif
Visi : 
Plafond : 
>= 8 km
>= 3000ft
5 à 8 km
1000 à 3000 ft
1500m à 5 km
500 à 1000 ft
800 à 1500m
200 à 500 ft
< 800m
< 200 ft
Symboles :   Orages  Brouillard  Fortes neiges  Fortes précipitations  Vent > 20 kt






- Altitude de l'aérodrome : 7820 ft


KASE - Aspen-Pitkin Co/Sardy Field

DERNIER METAR :
  • 222253Z 35008KT 6SM -SN BR BKN014 OVC018 M01/M03 A3011 RMK AO2 SLP174 P0000 T10111033

METARs EXPIRÉS :
  • 222153Z 01009G16KT 6SM -SN BR BKN014 OVC018 M01/M03 A3009 RMK AO2 SLP167 P0001 T10111033
  • 222143Z 01007KT 6SM -SN BR FEW009 BKN014 OVC037 M01/M03 A3008 RMK AO2 P0001 T10061028
  • 222131Z 01007KT 6SM -SN BR FEW009 BKN015 OVC037 M01/M03 A3008 RMK AO2 P0001 T10061028
  • 222117Z 36005KT 2 1/2SM -SN BR FEW006 SCT014 OVC037 M01/M03 A3007 RMK AO2 P0000 T10061028
  • 222100Z 02006KT 6SM -SN BR SCT006 BKN012 OVC037 M01/M03 A3007 RMK AO2 P0000 T10061028
  • 222053Z 01006KT 3SM -SN BR OVC006 M01/M03 A3007 RMK AO2 SLP161 P0000 60003 T10111028 55005

TAF KASE
Valide du 22 à 22h jusqu'au 23 à 18h UTC


222137Z 2222/2318 02003KT 1SM -SN BR OVC006
TEMPO 2222/2224 6SM -SN BR SCT015 OVC035
FM230000 31006KT P6SM SCT010 BKN030
FM230300 30003KT 6SM BR BKN035
FM230700 VRB04KT P6SM FEW035 SCT080



MET'MAP, la Météo Aéronautique d'un coup d'oeil ! - Copyright ORBIFLY Décembre 2007 - Disclaimer

ORBIFLY MET'MAP TEAM :

Programmation & Développement : Alexandra Zaïnal
Conception & Développement : Baudouin d'Aumeries
Co-Programmation & Développement : Marc-Olivier Méhu
Soutien technique & logistique : Manuel Goepfert

Contact : metmap@orbifly.com




SOURCES & CREDITS :

   NOAA       Earth
Advisory